createdAt,value
2023-03-13T00:00:31.115Z,15.95
2023-03-13T00:02:58.616Z,16.10
2023-03-13T00:05:26.065Z,16.58
2023-03-13T00:07:53.493Z,21.42
2023-03-13T00:10:20.986Z,22.15
2023-03-13T00:12:48.413Z,15.73
2023-03-13T00:15:15.931Z,16.92
2023-03-13T00:17:43.395Z,17.15
2023-03-13T00:20:11.182Z,17.90
2023-03-13T00:22:38.591Z,16.92
2023-03-13T00:25:06.154Z,13.15
2023-03-13T00:27:34.663Z,15.85
2023-03-13T00:30:02.157Z,15.85
2023-03-13T00:32:29.720Z,16.48
2023-03-13T00:34:57.218Z,15.52
2023-03-13T00:37:25.581Z,14.63
2023-03-13T00:39:54.878Z,15.63
2023-03-13T00:42:23.198Z,16.55
2023-03-13T00:44:50.624Z,16.65
2023-03-13T00:47:18.070Z,15.57
2023-03-13T00:49:45.559Z,19.52
2023-03-13T00:52:13.942Z,17.20
2023-03-13T00:54:41.592Z,16.23
2023-03-13T00:57:09.091Z,17.17
2023-03-13T00:59:36.748Z,15.07
2023-03-13T01:02:04.206Z,15.60
2023-03-13T01:04:33.208Z,14.65
2023-03-13T01:07:00.742Z,16.42
2023-03-13T01:09:28.246Z,15.32
2023-03-13T01:11:55.800Z,15.32
2023-03-13T01:14:23.276Z,15.02
2023-03-13T01:16:51.400Z,14.80
2023-03-13T01:19:19.091Z,16.38
2023-03-13T01:21:47.034Z,15.18
2023-03-13T01:24:15.381Z,17.08
2023-03-13T01:26:44.211Z,19.27
2023-03-13T01:29:11.686Z,15.57
2023-03-13T01:31:39.997Z,17.38
2023-03-13T01:34:08.892Z,16.83
2023-03-13T01:36:37.864Z,15.82
2023-03-13T01:39:05.947Z,18.20
2023-03-13T01:41:33.396Z,22.50
2023-03-13T01:44:00.906Z,17.95
2023-03-13T01:46:37.166Z,16.85
2023-03-13T01:49:29.506Z,18.23
2023-03-13T01:52:15.683Z,16.90
2023-03-13T01:55:09.081Z,17.58
2023-03-13T01:57:41.017Z,20.30
2023-03-13T02:00:12.324Z,17.48
2023-03-13T02:02:45.443Z,20.02
2023-03-13T02:05:13.439Z,18.85
2023-03-13T02:07:47.121Z,20.08
2023-03-13T02:10:16.136Z,19.85
2023-03-13T02:12:43.555Z,20.27
2023-03-13T02:15:14.136Z,21.42
2023-03-13T02:17:42.534Z,20.08
2023-03-13T02:20:10.735Z,19.70
2023-03-13T02:22:53.464Z,22.58
2023-03-13T02:25:39.677Z,19.50
2023-03-13T02:28:07.375Z,25.73
2023-03-13T02:30:37.100Z,27.80
2023-03-13T02:33:05.335Z,29.10
2023-03-13T02:35:36.480Z,26.38
2023-03-13T02:38:11.266Z,27.00
2023-03-13T02:40:40.293Z,27.92
2023-03-13T02:43:11.526Z,24.92
2023-03-13T02:45:40.492Z,29.15
2023-03-13T02:48:10.353Z,30.83
2023-03-13T02:50:38.416Z,30.45
2023-03-13T02:53:08.333Z,27.58
2023-03-13T02:55:37.981Z,30.52
2023-03-13T02:58:05.707Z,27.08
2023-03-13T03:00:36.569Z,25.55
2023-03-13T03:03:04.021Z,20.70
2023-03-13T03:05:31.499Z,22.60
2023-03-13T03:07:59.362Z,21.55
2023-03-13T03:10:29.475Z,20.25
2023-03-13T03:12:57.010Z,20.80
2023-03-13T03:15:24.384Z,18.90
2023-03-13T03:17:52.974Z,22.73
2023-03-13T03:20:20.449Z,19.60
2023-03-13T03:22:48.219Z,18.42
2023-03-13T03:25:15.812Z,19.40
2023-03-13T03:27:43.359Z,17.38
2023-03-13T03:30:11.376Z,16.77
2023-03-13T03:32:39.760Z,14.93
2023-03-13T03:35:07.497Z,17.92
2023-03-13T03:37:35.185Z,17.08
2023-03-13T03:40:06.622Z,14.85
2023-03-13T03:42:34.462Z,14.75
2023-03-13T03:45:02.342Z,18.08
2023-03-13T03:47:29.984Z,15.27
2023-03-13T03:49:57.689Z,13.32
2023-03-13T03:52:25.310Z,16.08
2023-03-13T03:54:52.838Z,15.85
2023-03-13T03:57:21.306Z,17.85
2023-03-13T03:59:49.185Z,19.67
2023-03-13T04:02:17.759Z,17.52
2023-03-13T04:04:45.924Z,17.02
2023-03-13T04:07:27.650Z,21.02
2023-03-13T04:09:55.193Z,17.58
2023-03-13T04:12:28.858Z,17.92
2023-03-13T04:14:57.722Z,17.52
2023-03-13T04:17:25.243Z,17.33
2023-03-13T04:19:52.783Z,17.70
2023-03-13T04:22:20.487Z,16.95
2023-03-13T04:24:52.242Z,15.73
2023-03-13T04:27:21.671Z,16.30
2023-03-13T04:29:51.092Z,17.58
2023-03-13T04:32:36.990Z,17.83
2023-03-13T04:35:19.500Z,16.27
2023-03-13T04:40:55.966Z,19.77
2023-03-13T04:43:58.377Z,17.00
2023-03-13T04:46:54.852Z,17.92
2023-03-13T04:49:45.406Z,16.20
2023-03-13T04:52:35.881Z,16.02
2023-03-13T04:55:29.253Z,17.10
2023-03-13T04:58:20.863Z,18.65
2023-03-13T05:01:11.116Z,15.75
2023-03-13T05:04:05.188Z,18.42
2023-03-13T05:06:52.912Z,19.02
2023-03-13T05:09:40.613Z,22.20
2023-03-13T05:12:30.777Z,23.33
2023-03-13T05:15:05.218Z,21.27
2023-03-13T05:17:42.585Z,16.20
2023-03-13T05:20:33.122Z,14.48
2023-03-13T05:23:12.339Z,15.88
2023-03-13T05:25:58.478Z,15.05
2023-03-13T05:28:31.862Z,16.80
2023-03-13T05:31:15.184Z,18.25
2023-03-13T05:34:05.305Z,16.65
2023-03-13T05:36:55.830Z,20.42
2023-03-13T05:39:54.519Z,15.27
2023-03-13T05:42:45.659Z,12.40
2023-03-13T05:45:28.042Z,13.60
2023-03-13T05:47:55.517Z,14.25
2023-03-13T05:50:58.039Z,16.58
2023-03-13T05:53:34.589Z,11.88
2023-03-13T05:56:04.718Z,14.23
2023-03-13T05:59:01.679Z,17.13
2023-03-13T06:01:48.047Z,17.58
2023-03-13T06:04:25.134Z,12.82
2023-03-13T06:06:52.851Z,12.18
2023-03-13T06:09:20.982Z,11.98
2023-03-13T06:11:49.333Z,13.43
2023-03-13T06:14:17.218Z,11.77
2023-03-13T06:16:55.794Z,15.07
2023-03-13T06:19:24.569Z,14.27
2023-03-13T06:21:52.403Z,14.20
2023-03-13T06:24:19.869Z,13.70
2023-03-13T06:26:49.781Z,13.20
2023-03-13T06:29:17.515Z,10.10
2023-03-13T06:31:45.047Z,9.43
2023-03-13T06:34:13.449Z,10.38
2023-03-13T06:36:41.038Z,10.63
2023-03-13T06:39:08.511Z,9.00
2023-03-13T06:41:36.272Z,10.13
2023-03-13T06:44:03.877Z,9.13
2023-03-13T06:46:31.583Z,8.73
2023-03-13T06:49:00.861Z,9.75
2023-03-13T06:51:28.282Z,8.80
2023-03-13T06:53:55.793Z,8.98
2023-03-13T06:56:23.357Z,8.10
2023-03-13T06:58:51.143Z,8.10
2023-03-13T07:01:18.704Z,7.53
2023-03-13T07:03:47.695Z,8.98
2023-03-13T07:06:15.423Z,13.07
2023-03-13T07:08:44.232Z,8.30
2023-03-13T07:11:13.233Z,8.43
2023-03-13T07:13:40.796Z,11.63
2023-03-13T07:16:10.240Z,9.05
2023-03-13T07:18:38.309Z,9.43
2023-03-13T07:21:06.216Z,7.90
2023-03-13T07:23:34.866Z,8.80
2023-03-13T07:26:06.202Z,7.90
2023-03-13T07:28:35.592Z,8.18
2023-03-13T07:31:04.987Z,7.70
2023-03-13T07:33:32.666Z,8.25
2023-03-13T07:36:00.210Z,9.73
2023-03-13T07:38:27.719Z,10.30
2023-03-13T07:40:56.603Z,11.25
2023-03-13T07:43:25.011Z,9.68
2023-03-13T07:45:52.706Z,11.43
2023-03-13T07:48:20.755Z,13.13
2023-03-13T07:50:48.519Z,14.60
2023-03-13T07:53:21.208Z,17.08
2023-03-13T07:55:54.608Z,14.15
2023-03-13T07:58:22.111Z,12.32
2023-03-13T08:00:49.693Z,11.18
2023-03-13T08:03:17.094Z,11.02
2023-03-13T08:05:44.630Z,13.93
2023-03-13T08:08:12.338Z,10.07
2023-03-13T08:10:39.959Z,10.30
2023-03-13T08:13:07.478Z,13.25
2023-03-13T08:15:34.926Z,11.52
2023-03-13T08:18:02.403Z,9.05
2023-03-13T08:20:29.961Z,15.10
2023-03-13T08:22:58.041Z,9.40
2023-03-13T08:25:25.512Z,18.10
2023-03-13T08:27:53.082Z,9.52
2023-03-13T08:30:20.578Z,10.05
2023-03-13T08:32:47.989Z,10.60
2023-03-13T08:35:15.548Z,10.77
2023-03-13T08:37:43.483Z,12.85
2023-03-13T08:40:11.523Z,11.68
2023-03-13T08:42:40.373Z,13.55
2023-03-13T08:45:08.383Z,11.73
2023-03-13T08:47:35.926Z,11.48
2023-03-13T08:50:03.845Z,9.20
2023-03-13T08:52:31.458Z,13.30
2023-03-13T08:54:58.848Z,9.80
2023-03-13T08:57:26.231Z,11.18
2023-03-13T08:59:53.760Z,10.23
2023-03-13T09:02:21.271Z,7.90
2023-03-13T09:04:48.963Z,10.05
2023-03-13T09:07:16.765Z,8.82
2023-03-13T09:09:44.375Z,8.80
2023-03-13T09:12:24.539Z,8.45
2023-03-13T09:14:57.308Z,8.48
2023-03-13T09:17:25.970Z,7.95
2023-03-13T09:20:00.016Z,10.50
2023-03-13T09:22:28.252Z,11.00
2023-03-13T09:24:55.700Z,8.70
2023-03-13T09:27:23.180Z,8.15
2023-03-13T09:29:50.619Z,8.60
2023-03-13T09:32:20.515Z,9.70
2023-03-13T09:34:48.295Z,9.75
2023-03-13T09:37:15.895Z,8.18
2023-03-13T09:39:43.428Z,12.52
2023-03-13T09:42:17.326Z,10.38
2023-03-13T09:44:56.976Z,8.25
2023-03-13T09:47:30.808Z,8.07
2023-03-13T09:50:01.838Z,12.55
2023-03-13T09:52:36.386Z,7.68
2023-03-13T09:55:06.803Z,9.10
2023-03-13T09:57:37.396Z,7.95
2023-03-13T10:00:07.092Z,7.95
2023-03-13T10:02:38.265Z,8.88
2023-03-13T10:05:09.033Z,11.63
2023-03-13T10:07:37.106Z,9.20
2023-03-13T10:10:07.781Z,9.18
2023-03-13T10:12:42.460Z,7.90
2023-03-13T10:15:28.320Z,7.95
2023-03-13T10:17:55.937Z,11.38
2023-03-13T10:20:28.433Z,6.75
2023-03-13T10:23:04.069Z,10.27
2023-03-13T10:25:33.951Z,10.30
2023-03-13T10:28:02.020Z,7.32
2023-03-13T10:30:35.549Z,9.23
2023-03-13T10:33:09.127Z,6.72
2023-03-13T10:35:38.605Z,7.60
2023-03-13T10:38:10.038Z,6.38
2023-03-13T10:40:37.733Z,6.32
2023-03-13T10:43:05.203Z,7.45
2023-03-13T10:45:35.561Z,7.72
2023-03-13T10:48:14.135Z,7.38
2023-03-13T10:50:46.237Z,6.70
2023-03-13T10:53:31.757Z,7.68
2023-03-13T10:58:36.198Z,12.27
2023-03-13T11:01:24.329Z,5.25
2023-03-13T11:03:53.200Z,9.90
2023-03-13T11:06:25.916Z,7.80
2023-03-13T11:09:13.655Z,7.45
2023-03-13T11:11:48.806Z,9.88
2023-03-13T11:16:47.719Z,6.28
2023-03-13T11:19:15.209Z,6.28
2023-03-13T11:21:45.780Z,4.97
2023-03-13T11:24:16.473Z,6.50
2023-03-13T11:27:02.031Z,4.43
2023-03-13T11:29:34.684Z,4.10
2023-03-13T11:32:07.854Z,5.05
2023-03-13T11:34:40.954Z,4.78
2023-03-13T11:37:16.116Z,5.90
2023-03-13T11:42:11.336Z,5.20
2023-03-13T11:44:56.000Z,7.03
2023-03-13T11:47:34.940Z,8.90
2023-03-13T11:50:14.667Z,4.70
2023-03-13T11:53:00.936Z,4.80
2023-03-13T11:55:34.732Z,5.15
2023-03-13T11:58:05.264Z,6.05
2023-03-13T12:00:32.722Z,9.23
2023-03-13T12:03:05.924Z,7.30
2023-03-13T12:05:43.491Z,6.07
2023-03-13T12:08:13.672Z,4.38
2023-03-13T12:10:44.764Z,5.15
2023-03-13T12:13:21.112Z,6.68
2023-03-13T12:15:50.390Z,8.35
2023-03-13T12:18:20.790Z,7.68
2023-03-13T12:20:59.506Z,4.93
2023-03-13T12:23:30.127Z,6.20
2023-03-13T12:26:01.339Z,4.70
2023-03-13T12:28:28.857Z,5.55
2023-03-13T12:31:05.784Z,5.22
2023-03-13T12:33:36.310Z,4.45
2023-03-13T12:36:08.501Z,5.43
2023-03-13T12:38:41.669Z,5.82
2023-03-13T12:41:14.020Z,4.95
2023-03-13T12:43:46.378Z,8.02
2023-03-13T12:46:20.139Z,5.10
2023-03-13T12:48:47.856Z,8.75
2023-03-13T12:51:44.570Z,5.00
2023-03-13T12:54:12.140Z,4.78
2023-03-13T12:56:58.169Z,5.28
2023-03-13T12:59:34.301Z,7.65
2023-03-13T13:02:03.689Z,6.00
2023-03-13T13:04:42.429Z,4.72
2023-03-13T13:07:26.812Z,5.57
2023-03-13T13:10:03.357Z,8.80
2023-03-13T13:12:30.929Z,4.75
2023-03-13T13:15:00.119Z,7.57
2023-03-13T13:17:30.599Z,7.00
2023-03-13T13:19:58.120Z,5.18
2023-03-13T13:22:37.877Z,4.88
2023-03-13T13:25:05.403Z,5.78
2023-03-13T13:27:33.124Z,4.22
2023-03-13T13:30:01.436Z,3.35
2023-03-13T13:32:32.020Z,6.03
2023-03-13T13:35:02.673Z,4.72
2023-03-13T13:37:30.284Z,4.38
2023-03-13T13:40:11.093Z,5.15
2023-03-13T13:42:43.649Z,5.63
2023-03-13T13:45:17.025Z,5.75
2023-03-13T13:47:46.015Z,6.20
2023-03-13T13:50:19.470Z,4.93
2023-03-13T13:52:48.354Z,5.80
2023-03-13T13:55:27.770Z,4.75
2023-03-13T13:58:05.862Z,7.20
2023-03-13T14:00:47.232Z,5.50
2023-03-13T14:03:19.868Z,6.88
2023-03-13T14:05:48.651Z,6.10
2023-03-13T14:08:22.559Z,6.72
2023-03-13T14:10:53.375Z,5.28
2023-03-13T14:13:21.591Z,4.20
2023-03-13T14:15:49.822Z,4.80
2023-03-13T14:18:30.594Z,5.90
2023-03-13T14:21:03.133Z,7.97
2023-03-13T14:23:43.902Z,9.70
2023-03-13T14:26:11.484Z,4.47
2023-03-13T14:28:43.408Z,5.25
2023-03-13T14:31:12.266Z,5.00
2023-03-13T14:33:39.871Z,4.68
2023-03-13T14:36:07.738Z,5.25
2023-03-13T14:38:35.461Z,4.85
2023-03-13T14:41:03.020Z,6.65
2023-03-13T14:43:30.812Z,3.70
2023-03-13T14:45:58.273Z,6.15
2023-03-13T14:48:32.032Z,5.35
2023-03-13T14:51:15.552Z,5.13
2023-03-13T14:54:00.320Z,4.50
2023-03-13T14:56:35.447Z,6.25
2023-03-13T15:01:30.926Z,4.78
2023-03-13T15:03:58.428Z,6.20
2023-03-13T15:06:26.211Z,7.93
2023-03-13T15:09:11.770Z,6.80
2023-03-13T15:11:43.646Z,6.55
2023-03-13T15:14:29.715Z,6.18
2023-03-13T15:16:57.131Z,7.18
2023-03-13T15:19:24.544Z,7.03
2023-03-13T15:21:52.630Z,6.82
2023-03-13T15:24:20.008Z,6.82
2023-03-13T15:26:49.149Z,6.40
2023-03-13T15:29:18.362Z,5.00
2023-03-13T15:31:45.897Z,6.10
2023-03-13T15:34:14.847Z,8.90
2023-03-13T15:36:42.649Z,5.18
2023-03-13T15:39:17.108Z,7.50
2023-03-13T15:41:44.585Z,4.50
2023-03-13T15:44:12.017Z,6.45
2023-03-13T15:46:39.472Z,5.72
2023-03-13T15:49:11.385Z,6.95
2023-03-13T15:51:38.937Z,7.93
2023-03-13T15:54:06.370Z,9.45
2023-03-13T15:56:36.273Z,10.98
2023-03-13T15:59:10.208Z,7.43
2023-03-13T16:01:38.042Z,6.65
2023-03-13T16:04:05.726Z,5.38
2023-03-13T16:06:33.545Z,7.05
2023-03-13T16:09:01.915Z,8.43
2023-03-13T16:11:30.011Z,7.75
2023-03-13T16:13:57.619Z,7.32
2023-03-13T16:16:29.596Z,10.88
2023-03-13T16:18:58.257Z,13.52
2023-03-13T16:21:27.735Z,23.75
2023-03-13T16:23:55.265Z,19.40
2023-03-13T16:26:24.339Z,16.92
2023-03-13T16:28:52.018Z,20.00
2023-03-13T16:31:23.783Z,23.27
2023-03-13T16:33:53.853Z,29.52
2023-03-13T16:36:25.611Z,33.70
2023-03-13T16:38:53.300Z,42.63
2023-03-13T16:41:21.920Z,62.05
2023-03-13T16:43:49.839Z,83.93
2023-03-13T16:46:17.579Z,69.15
2023-03-13T16:48:46.147Z,86.07
2023-03-13T16:51:17.960Z,76.95
2023-03-13T16:53:46.586Z,69.97
2023-03-13T16:56:23.277Z,70.03
2023-03-13T16:58:50.913Z,65.20
2023-03-13T17:01:18.369Z,83.15
2023-03-13T17:03:46.024Z,70.05
2023-03-13T17:06:17.707Z,52.88
2023-03-13T17:08:45.246Z,123.88
2023-03-13T17:11:15.991Z,93.30
2023-03-13T17:13:46.013Z,51.90
2023-03-13T17:16:20.859Z,35.78
2023-03-13T17:18:50.001Z,21.00
2023-03-13T17:21:18.632Z,25.88
2023-03-13T17:23:46.431Z,36.17
2023-03-13T17:26:19.049Z,91.20
2023-03-13T17:28:47.126Z,25.80
2023-03-13T17:31:15.114Z,41.28
2023-03-13T17:33:42.807Z,45.60
2023-03-13T17:36:14.925Z,55.15
2023-03-13T17:38:42.510Z,51.88
2023-03-13T17:41:13.783Z,50.75
2023-03-13T17:43:41.423Z,49.80
2023-03-13T17:46:16.309Z,42.15
2023-03-13T17:48:43.992Z,46.58
2023-03-13T17:51:19.645Z,45.00
2023-03-13T17:53:47.419Z,45.08
2023-03-13T17:56:19.434Z,46.35
2023-03-13T17:58:47.267Z,63.30
2023-03-13T18:01:15.440Z,70.05
2023-03-13T18:03:43.447Z,63.88
2023-03-13T18:06:31.107Z,59.40
2023-03-13T18:08:59.673Z,54.80
2023-03-13T18:11:27.518Z,74.90
2023-03-13T18:13:55.030Z,126.93
2023-03-13T18:16:57.298Z,132.52
2023-03-13T18:19:26.032Z,47.08
2023-03-13T18:21:54.523Z,25.15
2023-03-13T18:24:22.248Z,19.35
2023-03-13T18:26:50.186Z,48.13
2023-03-13T18:29:21.138Z,78.68
2023-03-13T18:31:50.613Z,89.22
2023-03-13T18:34:18.229Z,72.72
2023-03-13T18:36:45.644Z,63.38
2023-03-13T18:39:17.561Z,53.85
2023-03-13T18:41:45.522Z,46.97
2023-03-13T18:44:15.981Z,42.08
2023-03-13T18:46:44.095Z,43.38
2023-03-13T18:49:17.354Z,41.45
2023-03-13T18:51:45.361Z,38.90
2023-03-13T18:54:12.897Z,43.42
2023-03-13T18:56:40.407Z,41.20
2023-03-13T18:59:11.463Z,40.05
2023-03-13T19:01:38.973Z,41.85
2023-03-13T19:04:06.598Z,41.40
2023-03-13T19:06:35.266Z,44.72
2023-03-13T19:09:08.770Z,56.13
2023-03-13T19:11:41.716Z,70.95
2023-03-13T19:14:09.777Z,39.75
2023-03-13T19:16:39.995Z,143.95
2023-03-13T19:19:18.737Z,259.25
2023-03-13T19:21:46.188Z,188.38
2023-03-13T19:24:13.675Z,269.50
2023-03-13T19:26:41.156Z,232.18
2023-03-13T19:29:27.939Z,265.55
2023-03-13T19:31:55.764Z,230.13
2023-03-13T19:34:23.368Z,152.75
2023-03-13T19:36:53.401Z,162.98
2023-03-13T19:39:23.739Z,158.60
2023-03-13T19:41:51.790Z,91.10
2023-03-13T19:44:19.866Z,70.63
2023-03-13T19:46:47.742Z,76.07
2023-03-13T19:49:16.405Z,53.03
2023-03-13T19:51:44.357Z,44.22
2023-03-13T19:54:11.875Z,39.25
2023-03-13T19:56:46.806Z,45.38
2023-03-13T19:59:16.117Z,39.95
2023-03-13T20:01:43.960Z,46.97
2023-03-13T20:04:11.777Z,45.92
2023-03-13T20:06:39.890Z,48.15
2023-03-13T20:09:09.254Z,47.63
2023-03-13T20:11:37.207Z,43.25
2023-03-13T20:14:05.119Z,46.92
2023-03-13T20:16:34.915Z,45.28
2023-03-13T20:19:03.221Z,44.55
2023-03-13T20:21:31.546Z,47.95
2023-03-13T20:23:59.547Z,47.42
2023-03-13T20:26:27.499Z,52.30
2023-03-13T20:28:55.443Z,47.03
2023-03-13T20:31:24.391Z,38.53
2023-03-13T20:33:51.866Z,42.35
2023-03-13T20:36:20.663Z,36.40
2023-03-13T20:38:48.506Z,31.10
2023-03-13T20:41:16.611Z,32.15
2023-03-13T20:43:44.313Z,32.17
2023-03-13T20:46:11.820Z,35.63
2023-03-13T20:48:41.572Z,31.92
2023-03-13T20:51:09.625Z,37.70
2023-03-13T20:53:37.684Z,42.08
2023-03-13T20:56:07.045Z,33.50
2023-03-13T20:58:35.127Z,34.00
2023-03-13T21:01:03.061Z,33.50
2023-03-13T21:03:35.177Z,41.25
2023-03-13T21:06:22.991Z,41.63
2023-03-13T21:08:50.618Z,35.13
2023-03-13T21:11:22.032Z,37.08
2023-03-13T21:13:50.105Z,36.08
2023-03-13T21:16:19.017Z,35.65
2023-03-13T21:18:46.918Z,35.13
2023-03-13T21:21:19.621Z,41.38
2023-03-13T21:23:47.334Z,40.28
2023-03-13T21:26:15.002Z,45.55
2023-03-13T21:28:42.454Z,44.45
2023-03-13T21:31:14.098Z,45.83
2023-03-13T21:33:41.762Z,42.40
2023-03-13T21:36:09.994Z,44.60
2023-03-13T21:38:37.856Z,51.33
2023-03-13T21:41:09.544Z,52.03
2023-03-13T21:43:37.568Z,67.55
2023-03-13T21:46:05.129Z,64.90
2023-03-13T21:48:32.590Z,65.95
2023-03-13T21:51:00.469Z,52.78
2023-03-13T21:53:27.891Z,50.22
2023-03-13T21:55:55.419Z,51.80
2023-03-13T21:58:22.808Z,42.03
2023-03-13T22:00:50.260Z,41.33
2023-03-13T22:03:17.846Z,31.27
2023-03-13T22:05:45.590Z,25.08
2023-03-13T22:08:13.572Z,26.42
2023-03-13T22:10:42.903Z,22.83
2023-03-13T22:13:10.770Z,21.00
2023-03-13T22:15:43.441Z,19.15
2023-03-13T22:18:10.971Z,16.95
2023-03-13T22:20:38.389Z,20.67
2023-03-13T22:23:05.872Z,20.05
2023-03-13T22:25:33.309Z,19.10
2023-03-13T22:28:02.480Z,17.13
2023-03-13T22:30:30.042Z,18.65
2023-03-13T22:32:57.451Z,17.17
2023-03-13T22:35:24.908Z,16.27
2023-03-13T22:37:52.326Z,17.20
2023-03-13T22:40:20.391Z,15.70
2023-03-13T22:42:48.346Z,20.80
2023-03-13T22:45:16.084Z,16.63
2023-03-13T22:47:43.491Z,16.90
2023-03-13T22:50:11.631Z,17.20
2023-03-13T22:52:39.411Z,16.40
2023-03-13T22:55:07.113Z,14.10
2023-03-13T22:57:34.554Z,14.38
2023-03-13T23:00:02.030Z,13.32
2023-03-13T23:02:29.685Z,15.60
2023-03-13T23:04:58.624Z,13.75
2023-03-13T23:07:29.532Z,12.77
2023-03-13T23:09:57.753Z,14.55
2023-03-13T23:12:26.039Z,14.80
2023-03-13T23:14:54.279Z,13.10
2023-03-13T23:17:21.651Z,11.65
2023-03-13T23:19:49.139Z,12.85
2023-03-13T23:22:18.146Z,12.52
2023-03-13T23:24:45.588Z,12.07
2023-03-13T23:27:13.013Z,13.27
2023-03-13T23:29:40.722Z,12.88
2023-03-13T23:32:08.098Z,13.50
2023-03-13T23:34:36.190Z,13.60
2023-03-13T23:37:03.929Z,12.63
2023-03-13T23:39:31.413Z,14.10
2023-03-13T23:41:58.772Z,13.40
2023-03-13T23:44:26.240Z,15.13
2023-03-13T23:46:53.651Z,14.07
2023-03-13T23:49:21.125Z,13.10
2023-03-13T23:51:48.584Z,15.02
2023-03-13T23:54:15.957Z,13.65
2023-03-13T23:56:43.357Z,13.05
2023-03-13T23:59:10.831Z,15.00
